Veidnes — LLSD — position and weather

sailwx.info

Track history (hours):
 
Tides and Currents Weather Stations Pressure Air Temp Water Temp Dewpoint Dewpoint Depression Visibility Wind Speed Wind Dir Waves Ship Positions

Veidnes

Last reported at 2017-Mar-27 17:32 UTC. Time now 2017-Mar-27 18:31 UTC.
Position N 68°01' E 015°20'.

Length 51 m; draft 5 m.

Type: Cargo ship. MMSI: 259237000.

Date/timePositionNaut miles runAvg speedWind from/ knotsBaromVisibWave heightAir tempDewpointWater temp
2017-Mar-27 17:32N 68°01' E 015°20'5 5.1
2017-Mar-27 16:33N 67°57' E 015°29'7 7.1
2017-Mar-27 15:33N 67°58' E 015°48'0 0.0
2017-Mar-27 14:33N 67°58' E 015°48'4 3.7
2017-Mar-27 13:33N 67°58' E 015°38'7 7.5
2017-Mar-27 12:33N 68°01' E 015°20'0 0.0
2017-Mar-27 11:33N 68°01' E 015°20'0 0.0
2017-Mar-27 10:33N 68°01' E 015°20'0 0.0
2017-Mar-27 08:21N 68°01' E 015°20'0 0.0
2017-Mar-27 07:33N 68°01' E 015°20'0 0.0
2017-Mar-27 06:18N 68°01' E 015°20'0 0.0
2017-Mar-27 05:33N 68°01' E 015°20'0 0.0
2017-Mar-27 04:27N 68°01' E 015°20'0 0.0
2017-Mar-27 03:30N 68°01' E 015°20'0 0.0
2017-Mar-27 02:33N 68°01' E 015°20'0 0.0
2017-Mar-27 01:30N 68°01' E 015°20'0 0.0
2017-Mar-27 00:30N 68°01' E 015°20'0 0.0
2017-Mar-26 23:33N 68°01' E 015°20'0 0.0
2017-Mar-26 22:32N 68°01' E 015°20'0 0.0
2017-Mar-26 21:32N 68°01' E 015°20'0 0.0
2017-Mar-26 20:32N 68°01' E 015°20'0 0.0
2017-Mar-26 19:32N 68°01' E 015°20'0 0.3
2017-Mar-26 18:33N 68°01' E 015°21'7 6.6
2017-Mar-26 17:33N 67°58' E 015°37'4 4.4
2017-Mar-26 16:33N 67°58' E 015°48'0 0.0
2017-Mar-26 15:33N 67°58' E 015°48'3 3.0
2017-Mar-26 14:33N 67°58' E 015°41'8 7.4
2017-Mar-26 13:28N 68°01' E 015°20'0 0.0
2017-Mar-26 12:31N 68°01' E 015°20'0 0.0
2017-Mar-26 11:31N 68°01' E 015°20'0 0.0
2017-Mar-26 10:31N 68°01' E 015°20'0 0.0
2017-Mar-26 09:31N 68°01' E 015°20'0 0.0
2017-Mar-26 08:19N 68°01' E 015°20'0 0.0
2017-Mar-26 07:28N 68°01' E 015°20'0 0.0
2017-Mar-26 06:31N 68°01' E 015°20'0 0.0
2017-Mar-26 05:28N 68°01' E 015°20'0 0.0
2017-Mar-26 04:33N 68°01' E 015°20'0 0.0
2017-Mar-26 03:33N 68°01' E 015°20'0 0.0
2017-Mar-26 02:33N 68°01' E 015°20'0 0.0
2017-Mar-26 01:33N 68°01' E 015°20'0 0.0
2017-Mar-26 00:33N 68°01' E 015°20'0 0.0
2017-Mar-25 23:33N 68°01' E 015°20'0 0.0
2017-Mar-25 22:33N 68°01' E 015°20'0 0.0
2017-Mar-25 21:30N 68°01' E 015°20'0 0.0
2017-Mar-25 20:33N 68°01' E 015°20'0 0.0
2017-Mar-25 19:33N 68°01' E 015°20'0 0.0
2017-Mar-25 18:33N 68°01' E 015°20'0 0.0
2017-Mar-25 17:33N 68°01' E 015°20'0 0.0
2017-Mar-25 16:33N 68°01' E 015°20'0 0.0
2017-Mar-25 15:30N 68°01' E 015°20'0 0.0
2017-Mar-25 14:33N 68°01' E 015°20'0 0.0
2017-Mar-25 13:33N 68°01' E 015°20'0 0.0
2017-Mar-25 12:33N 68°01' E 015°20'0 0.0
2017-Mar-25 11:33N 68°01' E 015°20'0 0.0
2017-Mar-25 10:33N 68°01' E 015°20'0 0.0
2017-Mar-25 09:33N 68°01' E 015°20'0 0.0
2017-Mar-25 08:33N 68°01' E 015°20'0 0.0
2017-Mar-25 07:33N 68°01' E 015°20'0 0.0
2017-Mar-25 06:33N 68°01' E 015°20'0 0.0
2017-Mar-25 05:33N 68°01' E 015°20'0 0.0
2017-Mar-25 04:33N 68°01' E 015°20'0 0.0
2017-Mar-25 03:33N 68°01' E 015°20'0 0.0
2017-Mar-25 02:33N 68°01' E 015°20'0 0.0
2017-Mar-25 01:33N 68°01' E 015°20'0 0.0
2017-Mar-25 00:32N 68°01' E 015°20'0 0.0
2017-Mar-24 23:29N 68°01' E 015°20'0 0.0
2017-Mar-24 22:32N 68°01' E 015°20'0 0.0
2017-Mar-24 21:32N 68°01' E 015°20'0 0.0
2017-Mar-24 20:32N 68°01' E 015°20'0 0.0
2017-Mar-24 19:32N 68°01' E 015°20'0 0.0
2017-Mar-24 18:32N 68°01' E 015°20'0 0.0
2017-Mar-24 17:32N 68°01' E 015°20'0 0.1
2017-Mar-24 16:32N 68°01' E 015°20'0 0.0
2017-Mar-24 15:32N 68°01' E 015°20'0 0.0
2017-Mar-24 14:32N 68°01' E 015°20'0 0.0
2017-Mar-24 13:29N 68°01' E 015°20'0 0.0
2017-Mar-24 12:32N 68°01' E 015°20'0 0.0
2017-Mar-24 11:29N 68°01' E 015°20'0 0.0
2017-Mar-24 10:32N 68°01' E 015°20'0 0.0
2017-Mar-24 09:32N 68°01' E 015°20'0 0.0
2017-Mar-24 08:32N 68°01' E 015°20'0 0.0
2017-Mar-24 07:32N 68°01' E 015°20'0 0.0
2017-Mar-24 06:32N 68°01' E 015°20'0 0.0
2017-Mar-24 05:32N 68°01' E 015°20'0 0.0
2017-Mar-24 04:32N 68°01' E 015°20'0 0.0
2017-Mar-24 03:32N 68°01' E 015°20'0 0.0
2017-Mar-24 02:32N 68°01' E 015°20'0 0.0
2017-Mar-24 01:32N 68°01' E 015°20'0 0.0
2017-Mar-24 00:32N 68°01' E 015°20'0 0.0
2017-Mar-23 23:29N 68°01' E 015°20'0 0.0
2017-Mar-23 22:32N 68°01' E 015°20'0 0.0
2017-Mar-23 21:32N 68°01' E 015°20'0 0.0
2017-Mar-23 20:32N 68°01' E 015°20'0 0.0
2017-Mar-23 19:32N 68°01' E 015°20'0 0.0
2017-Mar-23 18:29N 68°01' E 015°20'0 0.0
2017-Mar-23 17:33N 68°01' E 015°20'6 5.9
2017-Mar-23 16:33N 67°58' E 015°33'6 4.1
2017-Mar-23 15:11N 67°58' E 015°48'3 4.5
2017-Mar-23 14:33N 67°58' E 015°41'8 8.0
2017-Mar-23 13:33N 68°01' E 015°20'0 0.1
2017-Mar-23 12:31N 68°01' E 015°20'0 0.0
2017-Mar-23 11:31N 68°01' E 015°20'0 0.0
2017-Mar-23 10:28N 68°01' E 015°20'0 0.0
2017-Mar-23 09:31N 68°01' E 015°20'0 0.0
2017-Mar-23 08:31N 68°01' E 015°20'0 0.0
2017-Mar-23 07:31N 68°01' E 015°20'0 0.0
2017-Mar-23 06:31N 68°01' E 015°20'0 0.0
2017-Mar-23 05:31N 68°01' E 015°20'0 0.0
2017-Mar-23 04:31N 68°01' E 015°20'0 0.0
2017-Mar-23 03:31N 68°01' E 015°20'0 0.0
2017-Mar-23 02:31N 68°01' E 015°20'0 0.0
2017-Mar-23 01:31N 68°01' E 015°20'0 0.0
2017-Mar-23 00:31N 68°01' E 015°20'0 0.0
2017-Mar-22 23:25N 68°01' E 015°20'0 0.0
2017-Mar-22 22:31N 68°01' E 015°20'0 0.0
2017-Mar-22 21:25N 68°01' E 015°20'0 0.0
2017-Mar-22 20:31N 68°01' E 015°20'0 0.0
2017-Mar-22 19:31N 68°01' E 015°20'0 0.0
2017-Mar-22 18:31N 68°01' E 015°20'2 2.1
2017-Mar-22 17:33N 67°59' E 015°21'8 7.9
2017-Mar-22 16:33N 67°58' E 015°43'2 2.2
2017-Mar-22 15:33N 67°58' E 015°48'4 4.3
2017-Mar-22 14:33N 67°58' E 015°37'3 2.9
2017-Mar-22 13:34N 67°56' E 015°30'1 0.9
2017-Mar-22 12:33N 67°57' E 015°28'5 5.3
2017-Mar-22 11:32N 68°01' E 015°20'0 0.0
2017-Mar-22 10:32N 68°01' E 015°20'0 0.0
2017-Mar-22 09:32N 68°01' E 015°20'0 0.0
2017-Mar-22 08:32N 68°01' E 015°20'0 0.0
2017-Mar-22 07:29N 68°01' E 015°20'0 0.0
2017-Mar-22 06:31N 68°01' E 015°20'0 0.0
2017-Mar-22 05:31N 68°01' E 015°20'0 0.0
2017-Mar-22 04:31N 68°01' E 015°20'0 0.0
2017-Mar-22 03:28N 68°01' E 015°20'0 0.0
2017-Mar-22 02:31N 68°01' E 015°20'0 0.0
2017-Mar-22 01:31N 68°01' E 015°20'0 0.0
2017-Mar-22 00:31N 68°01' E 015°20'0 0.0
2017-Mar-21 23:31N 68°01' E 015°20'0 0.0
2017-Mar-21 22:31N 68°01' E 015°20'0 0.0
2017-Mar-21 21:31N 68°01' E 015°20'0 0.0
2017-Mar-21 20:31N 68°01' E 015°20'0 0.0
2017-Mar-21 19:31N 68°01' E 015°20'0 0.0
2017-Mar-21 18:33N 68°01' E 015°20'1 0.6
2017-Mar-21 17:33N 68°00' E 015°21'7 7.3
2017-Mar-21 16:33N 67°58' E 015°39'4 3.5
2017-Mar-21 15:33N 67°58' E 015°48'5 4.6
2017-Mar-21 14:33N 67°58' E 015°36'7 6.5
2017-Mar-21 13:31N 68°01' E 015°20'0 0.0
2017-Mar-21 12:28N 68°01' E 015°20'0 0.0
2017-Mar-21 11:28N 68°01' E 015°20'0 0.0
2017-Mar-21 10:28N 68°01' E 015°20'0 0.0
2017-Mar-21 09:31N 68°01' E 015°20'0 0.0
2017-Mar-21 08:31N 68°01' E 015°20'0 0.0
2017-Mar-21 07:31N 68°01' E 015°20'0 0.0
2017-Mar-21 06:31N 68°01' E 015°20'0 0.0
2017-Mar-21 05:31N 68°01' E 015°20'0 0.0
2017-Mar-21 04:34N 68°01' E 015°20'0 0.0
2017-Mar-21 03:33N 68°01' E 015°20'0 0.0
2017-Mar-21 02:33N 68°01' E 015°20'0 0.0
2017-Mar-21 01:33N 68°01' E 015°20'0 0.0
2017-Mar-21 00:33N 68°01' E 015°20'0 0.0
2017-Mar-20 23:33N 68°01' E 015°20'0 0.0
2017-Mar-20 22:33N 68°01' E 015°20'0 0.0
2017-Mar-20 21:33N 68°01' E 015°20'0 0.0
2017-Mar-20 20:33N 68°01' E 015°20'0 0.0
2017-Mar-20 19:33N 68°01' E 015°20'0 0.0
2017-Mar-20 18:33N 68°01' E 015°20'0 0.0
2017-Mar-20 17:33N 68°01' E 015°20'2 2.0
2017-Mar-20 16:33N 67°59' E 015°21'8 7.8
2017-Mar-20 15:33N 67°58' E 015°42'2 2.4
2017-Mar-20 14:32N 67°58' E 015°48'0 0.2
2017-Mar-20 13:33N 67°58' E 015°48'2 1.9
2017-Mar-20 12:33N 67°58' E 015°44'9 8.7
2017-Mar-20 11:33N 67°60' E 015°21'1 1.4
2017-Mar-20 10:31N 68°01' E 015°20'0 0.0
2017-Mar-20 09:31N 68°01' E 015°20'0 0.0
2017-Mar-20 08:28N 68°01' E 015°20'0 0.0
2017-Mar-20 07:28N 68°01' E 015°20'0 0.0
2017-Mar-20 06:31N 68°01' E 015°20'0 0.0
2017-Mar-20 05:34N 68°01' E 015°20'0 0.0
2017-Mar-20 04:33N 68°01' E 015°20'0 0.0
2017-Mar-20 03:27N 68°01' E 015°20'0 0.0
2017-Mar-20 02:33N 68°01' E 015°20'0 0.0
2017-Mar-20 01:33N 68°01' E 015°20'0 0.0
2017-Mar-20 00:33N 68°01' E 015°20'0 0.0
2017-Mar-19 23:30N 68°01' E 015°20'0 0.0
2017-Mar-19 22:30N 68°01' E 015°20'0 0.0
2017-Mar-19 21:30N 68°01' E 015°20'0 0.0
2017-Mar-19 20:33N 68°01' E 015°20'0 0.0
2017-Mar-19 19:33N 68°01' E 015°20'0 0.0
2017-Mar-19 18:33N 68°01' E 015°20'3 2.9
2017-Mar-19 17:33N 67°58' E 015°22'4 3.8
2017-Mar-19 16:33N 67°58' E 015°32'6 6.3
2017-Mar-19 15:33N 67°58' E 015°48'1 0.7
2017-Mar-19 14:33N 67°58' E 015°47'9 9.3
2017-Mar-19 13:33N 67°57' E 015°23'10 9.5
2017-Mar-19 12:33N 68°05' E 015°06'10 9.8
2017-Mar-19 11:33N 68°10' E 014°45'6 5.7
2017-Mar-19 10:30N 68°14' E 014°32'0 0.0
2017-Mar-19 09:33N 68°14' E 014°32'0 0.0
2017-Mar-19 08:24N 68°14' E 014°32'0 0.0
2017-Mar-19 07:33N 68°14' E 014°32'0 0.0
2017-Mar-19 06:33N 68°14' E 014°32'0 0.0
2017-Mar-19 05:29N 68°14' E 014°32'0 0.0
2017-Mar-19 04:32N 68°14' E 014°32'0 0.0
2017-Mar-19 03:32N 68°14' E 014°32'0 0.0
2017-Mar-19 02:26N 68°14' E 014°32'0 0.0
2017-Mar-19 01:32N 68°14' E 014°32'0 0.0
2017-Mar-19 00:32N 68°14' E 014°32'0 0.0
2017-Mar-18 23:32N 68°14' E 014°32'0 0.0
2017-Mar-18 22:23N 68°14' E 014°32'0 0.0
2017-Mar-18 21:32N 68°14' E 014°32'0 0.0
2017-Mar-18 20:29N 68°14' E 014°32'0 0.0
2017-Mar-18 18:29N 68°14' E 014°32'0 0.0
2017-Mar-18 17:29N 68°14' E 014°32'0 0.0
2017-Mar-18 16:32N 68°14' E 014°32'0 0.0
2017-Mar-18 15:32N 68°14' E 014°32'0 0.0
2017-Mar-18 14:32N 68°14' E 014°32'0 0.0
2017-Mar-18 13:32N 68°14' E 014°32'0 0.0
2017-Mar-18 12:32N 68°14' E 014°32'0 0.0
2017-Mar-18 11:26N 68°14' E 014°32'0 0.0
2017-Mar-18 10:29N 68°14' E 014°32'0 0.0
2017-Mar-18 09:32N 68°14' E 014°32'0 0.0
2017-Mar-18 08:32N 68°14' E 014°32'0 0.0
2017-Mar-18 07:32N 68°14' E 014°32'0 0.0
2017-Mar-18 06:32N 68°14' E 014°32'0 0.0
2017-Mar-18 05:32N 68°14' E 014°32'0 0.0
2017-Mar-18 04:32N 68°14' E 014°32'0 0.0
2017-Mar-18 03:32N 68°14' E 014°32'0 0.0
2017-Mar-18 02:32N 68°14' E 014°32'0 0.0
2017-Mar-18 01:32N 68°14' E 014°32'0 0.0
2017-Mar-18 00:32N 68°14' E 014°32'0 0.0
2017-Mar-17 23:29N 68°14' E 014°32'0 0.0
2017-Mar-17 22:31N 68°14' E 014°32'0 0.0
2017-Mar-17 21:31N 68°14' E 014°32'0 0.0
2017-Mar-17 20:31N 68°14' E 014°32'0 0.0
2017-Mar-17 19:28N 68°14' E 014°32'0 0.0
2017-Mar-17 18:31N 68°14' E 014°32'  
Track history (hours):
 
Tides and Currents Weather Stations Pressure Air Temp Water Temp Dewpoint Dewpoint Depression Visibility Wind Speed Wind Dir Waves Ship Positions

Veidnes

Last reported at 2017-Mar-27 17:32 UTC. Time now 2017-Mar-27 18:31 UTC.
Position N 68°01' E 015°20'.

Length 51 m; draft 5 m.

Type: Cargo ship. MMSI: 259237000.

Date/timePositionNaut miles runAvg speedWind from/ knotsBaromVisibWave heightAir tempDewpointWater temp
2017-Mar-27 17:32N 68°01' E 015°20'5 5.1
2017-Mar-27 16:33N 67°57' E 015°29'7 7.1
2017-Mar-27 15:33N 67°58' E 015°48'0 0.0
2017-Mar-27 14:33N 67°58' E 015°48'4 3.7
2017-Mar-27 13:33N 67°58' E 015°38'7 7.5
2017-Mar-27 12:33N 68°01' E 015°20'0 0.0
2017-Mar-27 11:33N 68°01' E 015°20'0 0.0
2017-Mar-27 10:33N 68°01' E 015°20'0 0.0
2017-Mar-27 08:21N 68°01' E 015°20'0 0.0
2017-Mar-27 07:33N 68°01' E 015°20'0 0.0
2017-Mar-27 06:18N 68°01' E 015°20'0 0.0
2017-Mar-27 05:33N 68°01' E 015°20'0 0.0
2017-Mar-27 04:27N 68°01' E 015°20'0 0.0
2017-Mar-27 03:30N 68°01' E 015°20'0 0.0
2017-Mar-27 02:33N 68°01' E 015°20'0 0.0
2017-Mar-27 01:30N 68°01' E 015°20'0 0.0
2017-Mar-27 00:30N 68°01' E 015°20'0 0.0
2017-Mar-26 23:33N 68°01' E 015°20'0 0.0
2017-Mar-26 22:32N 68°01' E 015°20'0 0.0
2017-Mar-26 21:32N 68°01' E 015°20'0 0.0
2017-Mar-26 20:32N 68°01' E 015°20'0 0.0
2017-Mar-26 19:32N 68°01' E 015°20'0 0.3
2017-Mar-26 18:33N 68°01' E 015°21'7 6.6
2017-Mar-26 17:33N 67°58' E 015°37'4 4.4
2017-Mar-26 16:33N 67°58' E 015°48'0 0.0
2017-Mar-26 15:33N 67°58' E 015°48'3 3.0
2017-Mar-26 14:33N 67°58' E 015°41'8 7.4
2017-Mar-26 13:28N 68°01' E 015°20'0 0.0
2017-Mar-26 12:31N 68°01' E 015°20'0 0.0
2017-Mar-26 11:31N 68°01' E 015°20'0 0.0
2017-Mar-26 10:31N 68°01' E 015°20'0 0.0
2017-Mar-26 09:31N 68°01' E 015°20'0 0.0
2017-Mar-26 08:19N 68°01' E 015°20'0 0.0
2017-Mar-26 07:28N 68°01' E 015°20'0 0.0
2017-Mar-26 06:31N 68°01' E 015°20'0 0.0
2017-Mar-26 05:28N 68°01' E 015°20'0 0.0
2017-Mar-26 04:33N 68°01' E 015°20'0 0.0
2017-Mar-26 03:33N 68°01' E 015°20'0 0.0
2017-Mar-26 02:33N 68°01' E 015°20'0 0.0
2017-Mar-26 01:33N 68°01' E 015°20'0 0.0
2017-Mar-26 00:33N 68°01' E 015°20'0 0.0
2017-Mar-25 23:33N 68°01' E 015°20'0 0.0
2017-Mar-25 22:33N 68°01' E 015°20'0 0.0
2017-Mar-25 21:30N 68°01' E 015°20'0 0.0
2017-Mar-25 20:33N 68°01' E 015°20'0 0.0
2017-Mar-25 19:33N 68°01' E 015°20'0 0.0
2017-Mar-25 18:33N 68°01' E 015°20'0 0.0
2017-Mar-25 17:33N 68°01' E 015°20'0 0.0
2017-Mar-25 16:33N 68°01' E 015°20'0 0.0
2017-Mar-25 15:30N 68°01' E 015°20'0 0.0
2017-Mar-25 14:33N 68°01' E 015°20'0 0.0
2017-Mar-25 13:33N 68°01' E 015°20'0 0.0
2017-Mar-25 12:33N 68°01' E 015°20'0 0.0
2017-Mar-25 11:33N 68°01' E 015°20'0 0.0
2017-Mar-25 10:33N 68°01' E 015°20'0 0.0
2017-Mar-25 09:33N 68°01' E 015°20'0 0.0
2017-Mar-25 08:33N 68°01' E 015°20'0 0.0
2017-Mar-25 07:33N 68°01' E 015°20'0 0.0
2017-Mar-25 06:33N 68°01' E 015°20'0 0.0
2017-Mar-25 05:33N 68°01' E 015°20'0 0.0
2017-Mar-25 04:33N 68°01' E 015°20'0 0.0
2017-Mar-25 03:33N 68°01' E 015°20'0 0.0
2017-Mar-25 02:33N 68°01' E 015°20'0 0.0
2017-Mar-25 01:33N 68°01' E 015°20'0 0.0
2017-Mar-25 00:32N 68°01' E 015°20'0 0.0
2017-Mar-24 23:29N 68°01' E 015°20'0 0.0
2017-Mar-24 22:32N 68°01' E 015°20'0 0.0
2017-Mar-24 21:32N 68°01' E 015°20'0 0.0
2017-Mar-24 20:32N 68°01' E 015°20'0 0.0
2017-Mar-24 19:32N 68°01' E 015°20'0 0.0
2017-Mar-24 18:32N 68°01' E 015°20'0 0.0
2017-Mar-24 17:32N 68°01' E 015°20'0 0.1
2017-Mar-24 16:32N 68°01' E 015°20'0 0.0
2017-Mar-24 15:32N 68°01' E 015°20'0 0.0
2017-Mar-24 14:32N 68°01' E 015°20'0 0.0
2017-Mar-24 13:29N 68°01' E 015°20'0 0.0
2017-Mar-24 12:32N 68°01' E 015°20'0 0.0
2017-Mar-24 11:29N 68°01' E 015°20'0 0.0
2017-Mar-24 10:32N 68°01' E 015°20'0 0.0
2017-Mar-24 09:32N 68°01' E 015°20'0 0.0
2017-Mar-24 08:32N 68°01' E 015°20'0 0.0
2017-Mar-24 07:32N 68°01' E 015°20'0 0.0
2017-Mar-24 06:32N 68°01' E 015°20'0 0.0
2017-Mar-24 05:32N 68°01' E 015°20'0 0.0
2017-Mar-24 04:32N 68°01' E 015°20'0 0.0
2017-Mar-24 03:32N 68°01' E 015°20'0 0.0
2017-Mar-24 02:32N 68°01' E 015°20'0 0.0
2017-Mar-24 01:32N 68°01' E 015°20'0 0.0
2017-Mar-24 00:32N 68°01' E 015°20'0 0.0
2017-Mar-23 23:29N 68°01' E 015°20'0 0.0
2017-Mar-23 22:32N 68°01' E 015°20'0 0.0
2017-Mar-23 21:32N 68°01' E 015°20'0 0.0
2017-Mar-23 20:32N 68°01' E 015°20'0 0.0
2017-Mar-23 19:32N 68°01' E 015°20'0 0.0
2017-Mar-23 18:29N 68°01' E 015°20'0 0.0
2017-Mar-23 17:33N 68°01' E 015°20'6 5.9
2017-Mar-23 16:33N 67°58' E 015°33'6 4.1
2017-Mar-23 15:11N 67°58' E 015°48'3 4.5
2017-Mar-23 14:33N 67°58' E 015°41'8 8.0
2017-Mar-23 13:33N 68°01' E 015°20'0 0.1
2017-Mar-23 12:31N 68°01' E 015°20'0 0.0
2017-Mar-23 11:31N 68°01' E 015°20'0 0.0
2017-Mar-23 10:28N 68°01' E 015°20'0 0.0
2017-Mar-23 09:31N 68°01' E 015°20'0 0.0
2017-Mar-23 08:31N 68°01' E 015°20'0 0.0
2017-Mar-23 07:31N 68°01' E 015°20'0 0.0
2017-Mar-23 06:31N 68°01' E 015°20'0 0.0
2017-Mar-23 05:31N 68°01' E 015°20'0 0.0
2017-Mar-23 04:31N 68°01' E 015°20'0 0.0
2017-Mar-23 03:31N 68°01' E 015°20'0 0.0
2017-Mar-23 02:31N 68°01' E 015°20'0 0.0
2017-Mar-23 01:31N 68°01' E 015°20'0 0.0
2017-Mar-23 00:31N 68°01' E 015°20'0 0.0
2017-Mar-22 23:25N 68°01' E 015°20'0 0.0
2017-Mar-22 22:31N 68°01' E 015°20'0 0.0
2017-Mar-22 21:25N 68°01' E 015°20'0 0.0
2017-Mar-22 20:31N 68°01' E 015°20'0 0.0
2017-Mar-22 19:31N 68°01' E 015°20'0 0.0
2017-Mar-22 18:31N 68°01' E 015°20'2 2.1
2017-Mar-22 17:33N 67°59' E 015°21'8 7.9
2017-Mar-22 16:33N 67°58' E 015°43'2 2.2
2017-Mar-22 15:33N 67°58' E 015°48'4 4.3
2017-Mar-22 14:33N 67°58' E 015°37'3 2.9
2017-Mar-22 13:34N 67°56' E 015°30'1 0.9
2017-Mar-22 12:33N 67°57' E 015°28'5 5.3
2017-Mar-22 11:32N 68°01' E 015°20'0 0.0
2017-Mar-22 10:32N 68°01' E 015°20'0 0.0
2017-Mar-22 09:32N 68°01' E 015°20'0 0.0
2017-Mar-22 08:32N 68°01' E 015°20'0 0.0
2017-Mar-22 07:29N 68°01' E 015°20'0 0.0
2017-Mar-22 06:31N 68°01' E 015°20'0 0.0
2017-Mar-22 05:31N 68°01' E 015°20'0 0.0
2017-Mar-22 04:31N 68°01' E 015°20'0 0.0
2017-Mar-22 03:28N 68°01' E 015°20'0 0.0
2017-Mar-22 02:31N 68°01' E 015°20'0 0.0
2017-Mar-22 01:31N 68°01' E 015°20'0 0.0
2017-Mar-22 00:31N 68°01' E 015°20'0 0.0
2017-Mar-21 23:31N 68°01' E 015°20'0 0.0
2017-Mar-21 22:31N 68°01' E 015°20'0 0.0
2017-Mar-21 21:31N 68°01' E 015°20'0 0.0
2017-Mar-21 20:31N 68°01' E 015°20'0 0.0
2017-Mar-21 19:31N 68°01' E 015°20'0 0.0
2017-Mar-21 18:33N 68°01' E 015°20'1 0.6
2017-Mar-21 17:33N 68°00' E 015°21'7 7.3
2017-Mar-21 16:33N 67°58' E 015°39'4 3.5
2017-Mar-21 15:33N 67°58' E 015°48'5 4.6
2017-Mar-21 14:33N 67°58' E 015°36'7 6.5
2017-Mar-21 13:31N 68°01' E 015°20'0 0.0
2017-Mar-21 12:28N 68°01' E 015°20'0 0.0
2017-Mar-21 11:28N 68°01' E 015°20'0 0.0
2017-Mar-21 10:28N 68°01' E 015°20'0 0.0
2017-Mar-21 09:31N 68°01' E 015°20'0 0.0
2017-Mar-21 08:31N 68°01' E 015°20'0 0.0
2017-Mar-21 07:31N 68°01' E 015°20'0 0.0
2017-Mar-21 06:31N 68°01' E 015°20'0 0.0
2017-Mar-21 05:31N 68°01' E 015°20'0 0.0
2017-Mar-21 04:34N 68°01' E 015°20'0 0.0
2017-Mar-21 03:33N 68°01' E 015°20'0 0.0
2017-Mar-21 02:33N 68°01' E 015°20'0 0.0
2017-Mar-21 01:33N 68°01' E 015°20'0 0.0
2017-Mar-21 00:33N 68°01' E 015°20'0 0.0
2017-Mar-20 23:33N 68°01' E 015°20'0 0.0
2017-Mar-20 22:33N 68°01' E 015°20'0 0.0
2017-Mar-20 21:33N 68°01' E 015°20'0 0.0
2017-Mar-20 20:33N 68°01' E 015°20'0 0.0
2017-Mar-20 19:33N 68°01' E 015°20'0 0.0
2017-Mar-20 18:33N 68°01' E 015°20'0 0.0
2017-Mar-20 17:33N 68°01' E 015°20'2 2.0
2017-Mar-20 16:33N 67°59' E 015°21'8 7.8
2017-Mar-20 15:33N 67°58' E 015°42'2 2.4
2017-Mar-20 14:32N 67°58' E 015°48'0 0.2
2017-Mar-20 13:33N 67°58' E 015°48'2 1.9
2017-Mar-20 12:33N 67°58' E 015°44'9 8.7
2017-Mar-20 11:33N 67°60' E 015°21'1 1.4
2017-Mar-20 10:31N 68°01' E 015°20'0 0.0
2017-Mar-20 09:31N 68°01' E 015°20'0 0.0
2017-Mar-20 08:28N 68°01' E 015°20'0 0.0
2017-Mar-20 07:28N 68°01' E 015°20'0 0.0
2017-Mar-20 06:31N 68°01' E 015°20'0 0.0
2017-Mar-20 05:34N 68°01' E 015°20'0 0.0
2017-Mar-20 04:33N 68°01' E 015°20'0 0.0
2017-Mar-20 03:27N 68°01' E 015°20'0 0.0
2017-Mar-20 02:33N 68°01' E 015°20'0 0.0
2017-Mar-20 01:33N 68°01' E 015°20'0 0.0
2017-Mar-20 00:33N 68°01' E 015°20'0 0.0
2017-Mar-19 23:30N 68°01' E 015°20'0 0.0
2017-Mar-19 22:30N 68°01' E 015°20'0 0.0
2017-Mar-19 21:30N 68°01' E 015°20'0 0.0
2017-Mar-19 20:33N 68°01' E 015°20'0 0.0
2017-Mar-19 19:33N 68°01' E 015°20'0 0.0
2017-Mar-19 18:33N 68°01' E 015°20'3 2.9
2017-Mar-19 17:33N 67°58' E 015°22'4 3.8
2017-Mar-19 16:33N 67°58' E 015°32'6 6.3
2017-Mar-19 15:33N 67°58' E 015°48'1 0.7
2017-Mar-19 14:33N 67°58' E 015°47'9 9.3
2017-Mar-19 13:33N 67°57' E 015°23'10 9.5
2017-Mar-19 12:33N 68°05' E 015°06'10 9.8
2017-Mar-19 11:33N 68°10' E 014°45'6 5.7
2017-Mar-19 10:30N 68°14' E 014°32'0 0.0
2017-Mar-19 09:33N 68°14' E 014°32'0 0.0
2017-Mar-19 08:24N 68°14' E 014°32'0 0.0
2017-Mar-19 07:33N 68°14' E 014°32'0 0.0
2017-Mar-19 06:33N 68°14' E 014°32'0 0.0
2017-Mar-19 05:29N 68°14' E 014°32'0 0.0
2017-Mar-19 04:32N 68°14' E 014°32'0 0.0
2017-Mar-19 03:32N 68°14' E 014°32'0 0.0
2017-Mar-19 02:26N 68°14' E 014°32'0 0.0
2017-Mar-19 01:32N 68°14' E 014°32'0 0.0
2017-Mar-19 00:32N 68°14' E 014°32'0 0.0
2017-Mar-18 23:32N 68°14' E 014°32'0 0.0
2017-Mar-18 22:23N 68°14' E 014°32'0 0.0
2017-Mar-18 21:32N 68°14' E 014°32'0 0.0
2017-Mar-18 20:29N 68°14' E 014°32'0 0.0
2017-Mar-18 18:29N 68°14' E 014°32'0 0.0
2017-Mar-18 17:29N 68°14' E 014°32'0 0.0
2017-Mar-18 16:32N 68°14' E 014°32'0 0.0
2017-Mar-18 15:32N 68°14' E 014°32'0 0.0
2017-Mar-18 14:32N 68°14' E 014°32'0 0.0
2017-Mar-18 13:32N 68°14' E 014°32'0 0.0
2017-Mar-18 12:32N 68°14' E 014°32'0 0.0
2017-Mar-18 11:26N 68°14' E 014°32'0 0.0
2017-Mar-18 10:29N 68°14' E 014°32'0 0.0
2017-Mar-18 09:32N 68°14' E 014°32'0 0.0
2017-Mar-18 08:32N 68°14' E 014°32'0 0.0
2017-Mar-18 07:32N 68°14' E 014°32'0 0.0
2017-Mar-18 06:32N 68°14' E 014°32'0 0.0
2017-Mar-18 05:32N 68°14' E 014°32'0 0.0
2017-Mar-18 04:32N 68°14' E 014°32'0 0.0
2017-Mar-18 03:32N 68°14' E 014°32'0 0.0
2017-Mar-18 02:32N 68°14' E 014°32'0 0.0
2017-Mar-18 01:32N 68°14' E 014°32'0 0.0
2017-Mar-18 00:32N 68°14' E 014°32'0 0.0
2017-Mar-17 23:29N 68°14' E 014°32'0 0.0
2017-Mar-17 22:31N 68°14' E 014°32'0 0.0
2017-Mar-17 21:31N 68°14' E 014°32'0 0.0
2017-Mar-17 20:31N 68°14' E 014°32'0 0.0
2017-Mar-17 19:28N 68°14' E 014°32'0 0.0
2017-Mar-17 18:31N 68°14' E 014°32'  

Dump ship's entire track history